Pretty Hana — DSQJ5 — position and weather

sailwx.info

Track history (hours):
 
Tides and Currents Weather Stations Pressure Air Temp Water Temp Dewpoint Dewpoint Depression Visibility Wind Speed Wind Dir Waves Ship Positions

Pretty Hana

Last reported at 2017-Feb-28 08:26 UTC. Time now 2017-Feb-28 14:52 UTC.
Position N 31°02' E 122°17'.

Length 64 m; draft 4 m.

Type: Ship (hazmat cat B). MMSI: 441600000.

Date/timePositionNaut miles runAvg speedWind from/ knotsBaromVisibWave heightAir tempDewpointWater temp
2017-Feb-28 08:26N 31°02' E 122°17'1112.8
2017-Feb-28 07:33N 31°04' E 122°04'1111.0
2017-Feb-28 06:33N 31°09' E 121°53'9 8.7
2017-Feb-28 05:33N 31°15' E 121°46'7 7.2
2017-Feb-28 04:33N 31°21' E 121°40'7 7.1
2017-Feb-28 03:33N 31°24' E 121°33'7 6.7
2017-Feb-28 02:33N 31°28' E 121°27'9 9.2
2017-Feb-28 01:33N 31°34' E 121°18'19 2.4
2017-Feb-27 17:27N 31°46' E 120°60'2 0.2
2017-Feb-27 08:33N 31°45' E 121°02'1111.3
2017-Feb-27 07:34N 31°40' E 121°13'1211.9
2017-Feb-27 06:34N 31°31' E 121°23'1010.3
2017-Feb-27 05:34N 31°25' E 121°32'1010.3
2017-Feb-27 04:33N 31°19' E 121°42'1111.4
2017-Feb-27 03:33N 31°11' E 121°51'1111.4
2017-Feb-27 02:33N 31°05' E 122°03'  
2017-Feb-24 11:31N 33°50' E 132°21'9 9.6
2017-Feb-24 10:33N 33°53' E 132°32'9 9.1
2017-Feb-24 09:33N 33°57' E 132°42'1 0.0
2017-Feb-22 15:34N 33°58' E 132°43'9 8.9
2017-Feb-22 14:33N 33°53' E 132°34'9 9.4
2017-Feb-22 13:33N 33°50' E 132°23'  
2017-Feb-18 23:23N 33°47' E 132°07'1010.3
2017-Feb-18 22:28N 33°50' E 132°18'910.4
2017-Feb-18 21:33N 33°52' E 132°29'1110.5
2017-Feb-18 20:33N 33°56' E 132°40'  
Track history (hours):
 
Tides and Currents Weather Stations Pressure Air Temp Water Temp Dewpoint Dewpoint Depression Visibility Wind Speed Wind Dir Waves Ship Positions

Pretty Hana

Last reported at 2017-Feb-28 08:26 UTC. Time now 2017-Feb-28 14:52 UTC.
Position N 31°02' E 122°17'.

Length 64 m; draft 4 m.

Type: Ship (hazmat cat B). MMSI: 441600000.

Date/timePositionNaut miles runAvg speedWind from/ knotsBaromVisibWave heightAir tempDewpointWater temp
2017-Feb-28 08:26N 31°02' E 122°17'1112.8
2017-Feb-28 07:33N 31°04' E 122°04'1111.0
2017-Feb-28 06:33N 31°09' E 121°53'9 8.7
2017-Feb-28 05:33N 31°15' E 121°46'7 7.2
2017-Feb-28 04:33N 31°21' E 121°40'7 7.1
2017-Feb-28 03:33N 31°24' E 121°33'7 6.7
2017-Feb-28 02:33N 31°28' E 121°27'9 9.2
2017-Feb-28 01:33N 31°34' E 121°18'19 2.4
2017-Feb-27 17:27N 31°46' E 120°60'2 0.2
2017-Feb-27 08:33N 31°45' E 121°02'1111.3
2017-Feb-27 07:34N 31°40' E 121°13'1211.9
2017-Feb-27 06:34N 31°31' E 121°23'1010.3
2017-Feb-27 05:34N 31°25' E 121°32'1010.3
2017-Feb-27 04:33N 31°19' E 121°42'1111.4
2017-Feb-27 03:33N 31°11' E 121°51'1111.4
2017-Feb-27 02:33N 31°05' E 122°03'  
2017-Feb-24 11:31N 33°50' E 132°21'9 9.6
2017-Feb-24 10:33N 33°53' E 132°32'9 9.1
2017-Feb-24 09:33N 33°57' E 132°42'1 0.0
2017-Feb-22 15:34N 33°58' E 132°43'9 8.9
2017-Feb-22 14:33N 33°53' E 132°34'9 9.4
2017-Feb-22 13:33N 33°50' E 132°23'  
2017-Feb-18 23:23N 33°47' E 132°07'1010.3
2017-Feb-18 22:28N 33°50' E 132°18'910.4
2017-Feb-18 21:33N 33°52' E 132°29'1110.5
2017-Feb-18 20:33N 33°56' E 132°40'  

Dump ship's entire track history